Queen Of Cowichan — CZ4990 — position and weather

sailwx.info

Track history (hours):
 
Tides and Currents Weather Stations Pressure Air Temp Water Temp Dewpoint Dewpoint Depression Visibility Wind Speed Wind Dir Waves Ship Positions

Queen Of Cowichan

Last reported at 2015-Jul-02 20:34 UTC. Time now 2015-Jul-02 21:27 UTC.
Position N 49°19' W 123°25'.

Length 139 m; draft 5.5 m.

Type: Passenger vessel. MMSI: 316001251.

Date/timePositionNaut miles runAvg speedWind from/ knotsBaromVisibWave heightAir tempDewpointWater temp
2015-Jul-02 20:34N 49°19' W 123°25'2019.7
2015-Jul-02 19:34N 49°13' W 123°54'2 1.8
2015-Jul-02 18:34N 49°12' W 123°56'1919.3
2015-Jul-02 17:34N 49°18' W 123°28'9 9.0
2015-Jul-02 16:33N 49°23' W 123°16'1413.6
2015-Jul-02 15:33N 49°17' W 123°35'1514.1
2015-Jul-02 14:28N 49°12' W 123°57'0 0.1
2015-Jul-02 13:33N 49°12' W 123°57'0 0.0
2015-Jul-02 12:30N 49°12' W 123°57'0 0.0
2015-Jul-02 11:33N 49°12' W 123°57'0 0.0
2015-Jul-02 10:34N 49°12' W 123°57'0 0.0
2015-Jul-02 09:33N 49°12' W 123°57'0 0.0
2015-Jul-02 08:30N 49°12' W 123°57'0 0.0
2015-Jul-02 07:30N 49°12' W 123°57'0 0.0
2015-Jul-02 06:30N 49°12' W 123°57'0 0.0
2015-Jul-02 04:33N 49°12' W 123°57'0 0.0
2015-Jul-02 03:27N 49°12' W 123°57'0 0.0
2015-Jul-02 01:33N 49°12' W 123°57'0 0.0
2015-Jul-01 23:33N 49°12' W 123°57'5 4.9
2015-Jul-01 22:33N 49°15' W 123°52'5 4.6
2015-Jul-01 21:32N 49°12' W 123°57'0 0.3
2015-Jul-01 20:33N 49°12' W 123°57'0 0.1
2015-Jul-01 19:27N 49°12' W 123°57'0 0.0
2015-Jul-01 18:33N 49°12' W 123°57'0 0.0
2015-Jul-01 17:21N 49°12' W 123°57'0 0.0
2015-Jul-01 16:06N 49°12' W 123°57'0 0.0
2015-Jul-01 15:18N 49°12' W 123°57'0 0.0
2015-Jul-01 13:24N 49°12' W 123°57'0 0.0
2015-Jul-01 12:33N 49°12' W 123°57'0 0.0
2015-Jul-01 11:24N 49°12' W 123°57'0 0.0
2015-Jul-01 10:24N 49°12' W 123°57'0 0.0
2015-Jul-01 09:33N 49°12' W 123°57'0 0.0
2015-Jul-01 08:30N 49°12' W 123°57'0 0.0
2015-Jul-01 07:30N 49°12' W 123°57'0 0.0
2015-Jul-01 06:21N 49°12' W 123°57'0 0.0
2015-Jul-01 05:27N 49°12' W 123°57'0 0.0
2015-Jul-01 04:33N 49°12' W 123°57'0 0.0
2015-Jul-01 02:33N 49°12' W 123°57'0 0.0
2015-Jul-01 01:33N 49°12' W 123°57'0 0.0
2015-Jul-01 00:21N 49°12' W 123°57'0 0.0
2015-Jun-30 23:27N 49°12' W 123°57'0 0.0
2015-Jun-30 22:33N 49°12' W 123°57'0 0.0
2015-Jun-30 20:33N 49°12' W 123°57'0 0.0
2015-Jun-30 19:27N 49°12' W 123°57'0 0.0
2015-Jun-30 18:21N 49°12' W 123°57'0 0.0
2015-Jun-30 15:21N 49°12' W 123°57'0 0.0
2015-Jun-30 14:27N 49°12' W 123°57'0 0.0
2015-Jun-30 13:33N 49°12' W 123°57'0 0.0
2015-Jun-30 11:03N 49°12' W 123°57'0 0.0
2015-Jun-30 10:30N 49°12' W 123°57'0 0.0
2015-Jun-30 09:33N 49°12' W 123°57'0 0.0
2015-Jun-30 08:33N 49°12' W 123°57'0 0.0
2015-Jun-30 07:33N 49°12' W 123°57'0 0.0
2015-Jun-30 06:33N 49°12' W 123°57'0 0.0
2015-Jun-30 05:33N 49°12' W 123°57'0 0.0
2015-Jun-30 04:33N 49°12' W 123°57'5 4.7
2015-Jun-30 03:33N 49°14' W 123°51'2019.9
2015-Jun-30 02:34N 49°20' W 123°22'5 4.8
2015-Jun-30 01:33N 49°23' W 123°17'1817.9
2015-Jun-30 00:33N 49°15' W 123°42'1110.8
2015-Jun-29 23:33N 49°12' W 123°57'1110.6
2015-Jun-29 22:34N 49°16' W 123°43'1818.4
2015-Jun-29 21:33N 49°23' W 123°16'4 3.8
2015-Jun-29 20:33N 49°20' W 123°20'2019.9
2015-Jun-29 19:33N 49°14' W 123°50'6 5.5
2015-Jun-29 18:33N 49°12' W 123°57'1918.7
2015-Jun-29 17:33N 49°18' W 123°31'1010.2
2015-Jun-29 16:33N 49°23' W 123°16'1413.8
2015-Jun-29 15:33N 49°16' W 123°35'1511.5
2015-Jun-29 14:13N 49°12' W 123°57'0 0.1
2015-Jun-29 13:26N 49°12' W 123°57'0 0.0
2015-Jun-29 12:20N 49°12' W 123°57'0 0.0
2015-Jun-29 11:32N 49°12' W 123°57'0 0.0
2015-Jun-29 09:26N 49°12' W 123°57'0 0.0
2015-Jun-29 08:08N 49°12' W 123°57'0 0.0
2015-Jun-29 07:32N 49°12' W 123°57'0 0.0
2015-Jun-29 06:20N 49°12' W 123°57'0 0.0
2015-Jun-29 05:26N 49°12' W 123°57'0 0.0
2015-Jun-29 04:32N 49°12' W 123°57'4 4.1
2015-Jun-29 03:33N 49°14' W 123°52'2019.8
2015-Jun-29 02:34N 49°19' W 123°23'6 5.6
2015-Jun-29 01:33N 49°23' W 123°16'1716.8
2015-Jun-29 00:33N 49°16' W 123°39'1212.2
2015-Jun-28 23:33N 49°12' W 123°57'1211.8
2015-Jun-28 22:33N 49°17' W 123°41'1717.1
2015-Jun-28 21:33N 49°23' W 123°16'4 3.7
2015-Jun-28 20:33N 49°20' W 123°20'2019.6
2015-Jun-28 19:33N 49°14' W 123°49'6 1.0
2015-Jun-28 13:17N 49°12' W 123°57'0 0.0
2015-Jun-28 12:26N 49°12' W 123°57'0 0.0
2015-Jun-28 11:32N 49°12' W 123°57'0 0.0
2015-Jun-28 10:32N 49°12' W 123°57'0 0.0
2015-Jun-28 09:17N 49°12' W 123°57'0 0.0
2015-Jun-28 08:32N 49°12' W 123°57'0 0.0
2015-Jun-28 07:32N 49°12' W 123°57'0 0.0
2015-Jun-28 06:26N 49°12' W 123°57'0 0.0
2015-Jun-28 05:08N 49°12' W 123°57'0 0.0
2015-Jun-28 04:20N 49°12' W 123°57'0 0.0
2015-Jun-28 03:20N 49°12' W 123°57'0 0.0
2015-Jun-28 02:17N 49°12' W 123°57'0 0.0
2015-Jun-28 01:05N 49°12' W 123°57'0 0.0
2015-Jun-28 00:17N 49°12' W 123°57'0 0.1
2015-Jun-27 23:29N 49°12' W 123°57'1213.0
2015-Jun-27 22:34N 49°17' W 123°40'1712.5
2015-Jun-27 21:12N 49°23' W 123°16'5 8.0
2015-Jun-27 20:33N 49°19' W 123°22'2019.9
2015-Jun-27 19:33N 49°14' W 123°51'2 2.3
2015-Jun-27 18:33N 49°13' W 123°55'2019.8
2015-Jun-27 17:33N 49°19' W 123°26'7 7.3
2015-Jun-27 16:33N 49°23' W 123°16'1515.3
2015-Jun-27 15:33N 49°16' W 123°37'1413.7
2015-Jun-27 14:33N 49°12' W 123°57'0 0.1
2015-Jun-27 13:33N 49°12' W 123°57'0 0.0
2015-Jun-27 12:33N 49°12' W 123°57'0 0.0
2015-Jun-27 11:33N 49°12' W 123°57'0 0.0
2015-Jun-27 10:33N 49°12' W 123°57'0 0.0
2015-Jun-27 09:33N 49°12' W 123°57'0 0.0
2015-Jun-27 08:33N 49°12' W 123°57'0 0.0
2015-Jun-27 07:33N 49°12' W 123°57'0 0.0
2015-Jun-27 06:33N 49°12' W 123°57'0 0.0
2015-Jun-27 05:33N 49°12' W 123°57'0 0.0
2015-Jun-27 04:33N 49°12' W 123°57'1 0.6
2015-Jun-27 03:34N 49°12' W 123°57'1919.5
2015-Jun-27 02:34N 49°19' W 123°29'9 9.0
2015-Jun-27 01:33N 49°23' W 123°16'1515.4
2015-Jun-27 00:33N 49°16' W 123°37'1413.8
2015-Jun-26 23:33N 49°12' W 123°57'1211.6
2015-Jun-26 22:33N 49°16' W 123°41'1717.3
2015-Jun-26 21:33N 49°23' W 123°16'5 4.6
2015-Jun-26 20:33N 49°19' W 123°21'2019.7
2015-Jun-26 19:33N 49°14' W 123°50'5 5.1
2015-Jun-26 18:33N 49°12' W 123°57'1918.7
2015-Jun-26 17:34N 49°18' W 123°30'1010.2
2015-Jun-26 16:33N 49°23' W 123°16'1414.1
2015-Jun-26 15:33N 49°16' W 123°36'1514.9
2015-Jun-26 14:33N 49°12' W 123°57'0 0.1
2015-Jun-26 13:33N 49°12' W 123°57'0 0.0
2015-Jun-26 12:33N 49°12' W 123°57'0 0.0
2015-Jun-26 11:33N 49°12' W 123°57'0 0.0
2015-Jun-26 10:33N 49°12' W 123°57'0 0.0
2015-Jun-26 09:30N 49°12' W 123°57'0 0.0
2015-Jun-26 08:33N 49°12' W 123°57'0 0.0
2015-Jun-26 07:33N 49°12' W 123°57'0 0.0
2015-Jun-26 06:27N 49°12' W 123°57'0 0.0
2015-Jun-26 05:30N 49°12' W 123°57'0 0.4
2015-Jun-26 04:33N 49°12' W 123°57'1818.0
2015-Jun-26 03:33N 49°18' W 123°31'1110.9
2015-Jun-26 02:33N 49°23' W 123°16'1616.0
2015-Jun-26 01:33N 49°16' W 123°38'1313.1
2015-Jun-26 00:33N 49°12' W 123°57'1110.9
2015-Jun-25 23:34N 49°17' W 123°43'1818.1
2015-Jun-25 22:33N 49°23' W 123°16'6 6.1
2015-Jun-25 21:33N 49°19' W 123°23'2019.8
2015-Jun-25 20:33N 49°14' W 123°53'1 0.9
2015-Jun-25 19:34N 49°14' W 123°54'1514.7
2015-Jun-25 18:34N 49°18' W 123°33'1111.4
2015-Jun-25 17:33N 49°23' W 123°16'0 0.0
2015-Jun-25 16:33N 49°23' W 123°16'1413.7
2015-Jun-25 15:33N 49°16' W 123°35'1515.4
2015-Jun-25 14:33N 49°12' W 123°57'0 0.1
2015-Jun-25 13:33N 49°12' W 123°57'0 0.0
2015-Jun-25 12:31N 49°12' W 123°57'0 0.0
2015-Jun-25 11:31N 49°12' W 123°57'0 0.0
2015-Jun-25 10:31N 49°12' W 123°57'0 0.0
2015-Jun-25 09:31N 49°12' W 123°57'0 0.0
2015-Jun-25 08:31N 49°12' W 123°57'0 0.0
2015-Jun-25 07:31N 49°12' W 123°57'0 0.0
2015-Jun-25 05:31N 49°12' W 123°57'0 0.0
2015-Jun-25 04:31N 49°12' W 123°57'0 0.0
2015-Jun-25 03:31N 49°12' W 123°57'0 0.0
2015-Jun-25 02:16N 49°12' W 123°57'0 0.1
2015-Jun-25 01:31N 49°12' W 123°57'7 7.4
2015-Jun-25 00:33N 49°15' W 123°48'1919.4
2015-Jun-24 23:33N 49°21' W 123°20'1 0.6
2015-Jun-24 22:33N 49°21' W 123°20'2019.8
2015-Jun-24 21:33N 49°14' W 123°49'6 5.4
2015-Jun-24 20:24N 49°12' W 123°57'0 0.1
2015-Jun-24 19:30N 49°12' W 123°57'0 0.0
2015-Jun-24 18:12N 49°12' W 123°57'0 0.0
2015-Jun-24 17:24N 49°12' W 123°57'0 0.0
2015-Jun-24 16:30N 49°12' W 123°57'0 0.0
2015-Jun-24 15:24N 49°12' W 123°57'0 0.0
2015-Jun-24 14:30N 49°12' W 123°57'0 0.0
2015-Jun-24 13:33N 49°12' W 123°57'0 0.0
2015-Jun-24 12:24N 49°12' W 123°57'0 0.0
2015-Jun-24 11:33N 49°12' W 123°57'0 0.0
2015-Jun-24 10:33N 49°12' W 123°57'0 0.0
2015-Jun-24 09:30N 49°12' W 123°57'0 0.0
2015-Jun-24 08:18N 49°12' W 123°57'0 0.0
2015-Jun-24 07:30N 49°12' W 123°57'0 0.0
2015-Jun-24 06:24N 49°12' W 123°57'0 0.0
2015-Jun-24 05:30N 49°12' W 123°57'0 0.0
2015-Jun-24 04:24N 49°12' W 123°57'0 0.0
2015-Jun-24 03:18N 49°12' W 123°57'0 0.0
2015-Jun-24 02:33N 49°12' W 123°57'0 0.0
2015-Jun-24 01:30N 49°12' W 123°57'0 0.0
2015-Jun-24 00:18N 49°12' W 123°57'0 0.0
2015-Jun-23 23:33N 49°12' W 123°57'0 0.0
2015-Jun-23 22:33N 49°12' W 123°57'0 0.0
2015-Jun-23 21:33N 49°12' W 123°57'0 0.0
2015-Jun-23 20:33N 49°12' W 123°57'0 0.0
2015-Jun-23 19:30N 49°12' W 123°57'0 0.0
2015-Jun-23 19:00N 49°12' W 123°57'  
Track history (hours):
 
Tides and Currents Weather Stations Pressure Air Temp Water Temp Dewpoint Dewpoint Depression Visibility Wind Speed Wind Dir Waves Ship Positions

Queen Of Cowichan

Last reported at 2015-Jul-02 20:34 UTC. Time now 2015-Jul-02 21:27 UTC.
Position N 49°19' W 123°25'.

Length 139 m; draft 5.5 m.

Type: Passenger vessel. MMSI: 316001251.

Date/timePositionNaut miles runAvg speedWind from/ knotsBaromVisibWave heightAir tempDewpointWater temp
2015-Jul-02 20:34N 49°19' W 123°25'2019.7
2015-Jul-02 19:34N 49°13' W 123°54'2 1.8
2015-Jul-02 18:34N 49°12' W 123°56'1919.3
2015-Jul-02 17:34N 49°18' W 123°28'9 9.0
2015-Jul-02 16:33N 49°23' W 123°16'1413.6
2015-Jul-02 15:33N 49°17' W 123°35'1514.1
2015-Jul-02 14:28N 49°12' W 123°57'0 0.1
2015-Jul-02 13:33N 49°12' W 123°57'0 0.0
2015-Jul-02 12:30N 49°12' W 123°57'0 0.0
2015-Jul-02 11:33N 49°12' W 123°57'0 0.0
2015-Jul-02 10:34N 49°12' W 123°57'0 0.0
2015-Jul-02 09:33N 49°12' W 123°57'0 0.0
2015-Jul-02 08:30N 49°12' W 123°57'0 0.0
2015-Jul-02 07:30N 49°12' W 123°57'0 0.0
2015-Jul-02 06:30N 49°12' W 123°57'0 0.0
2015-Jul-02 04:33N 49°12' W 123°57'0 0.0
2015-Jul-02 03:27N 49°12' W 123°57'0 0.0
2015-Jul-02 01:33N 49°12' W 123°57'0 0.0
2015-Jul-01 23:33N 49°12' W 123°57'5 4.9
2015-Jul-01 22:33N 49°15' W 123°52'5 4.6
2015-Jul-01 21:32N 49°12' W 123°57'0 0.3
2015-Jul-01 20:33N 49°12' W 123°57'0 0.1
2015-Jul-01 19:27N 49°12' W 123°57'0 0.0
2015-Jul-01 18:33N 49°12' W 123°57'0 0.0
2015-Jul-01 17:21N 49°12' W 123°57'0 0.0
2015-Jul-01 16:06N 49°12' W 123°57'0 0.0
2015-Jul-01 15:18N 49°12' W 123°57'0 0.0
2015-Jul-01 13:24N 49°12' W 123°57'0 0.0
2015-Jul-01 12:33N 49°12' W 123°57'0 0.0
2015-Jul-01 11:24N 49°12' W 123°57'0 0.0
2015-Jul-01 10:24N 49°12' W 123°57'0 0.0
2015-Jul-01 09:33N 49°12' W 123°57'0 0.0
2015-Jul-01 08:30N 49°12' W 123°57'0 0.0
2015-Jul-01 07:30N 49°12' W 123°57'0 0.0
2015-Jul-01 06:21N 49°12' W 123°57'0 0.0
2015-Jul-01 05:27N 49°12' W 123°57'0 0.0
2015-Jul-01 04:33N 49°12' W 123°57'0 0.0
2015-Jul-01 02:33N 49°12' W 123°57'0 0.0
2015-Jul-01 01:33N 49°12' W 123°57'0 0.0
2015-Jul-01 00:21N 49°12' W 123°57'0 0.0
2015-Jun-30 23:27N 49°12' W 123°57'0 0.0
2015-Jun-30 22:33N 49°12' W 123°57'0 0.0
2015-Jun-30 20:33N 49°12' W 123°57'0 0.0
2015-Jun-30 19:27N 49°12' W 123°57'0 0.0
2015-Jun-30 18:21N 49°12' W 123°57'0 0.0
2015-Jun-30 15:21N 49°12' W 123°57'0 0.0
2015-Jun-30 14:27N 49°12' W 123°57'0 0.0
2015-Jun-30 13:33N 49°12' W 123°57'0 0.0
2015-Jun-30 11:03N 49°12' W 123°57'0 0.0
2015-Jun-30 10:30N 49°12' W 123°57'0 0.0
2015-Jun-30 09:33N 49°12' W 123°57'0 0.0
2015-Jun-30 08:33N 49°12' W 123°57'0 0.0
2015-Jun-30 07:33N 49°12' W 123°57'0 0.0
2015-Jun-30 06:33N 49°12' W 123°57'0 0.0
2015-Jun-30 05:33N 49°12' W 123°57'0 0.0
2015-Jun-30 04:33N 49°12' W 123°57'5 4.7
2015-Jun-30 03:33N 49°14' W 123°51'2019.9
2015-Jun-30 02:34N 49°20' W 123°22'5 4.8
2015-Jun-30 01:33N 49°23' W 123°17'1817.9
2015-Jun-30 00:33N 49°15' W 123°42'1110.8
2015-Jun-29 23:33N 49°12' W 123°57'1110.6
2015-Jun-29 22:34N 49°16' W 123°43'1818.4
2015-Jun-29 21:33N 49°23' W 123°16'4 3.8
2015-Jun-29 20:33N 49°20' W 123°20'2019.9
2015-Jun-29 19:33N 49°14' W 123°50'6 5.5
2015-Jun-29 18:33N 49°12' W 123°57'1918.7
2015-Jun-29 17:33N 49°18' W 123°31'1010.2
2015-Jun-29 16:33N 49°23' W 123°16'1413.8
2015-Jun-29 15:33N 49°16' W 123°35'1511.5
2015-Jun-29 14:13N 49°12' W 123°57'0 0.1
2015-Jun-29 13:26N 49°12' W 123°57'0 0.0
2015-Jun-29 12:20N 49°12' W 123°57'0 0.0
2015-Jun-29 11:32N 49°12' W 123°57'0 0.0
2015-Jun-29 09:26N 49°12' W 123°57'0 0.0
2015-Jun-29 08:08N 49°12' W 123°57'0 0.0
2015-Jun-29 07:32N 49°12' W 123°57'0 0.0
2015-Jun-29 06:20N 49°12' W 123°57'0 0.0
2015-Jun-29 05:26N 49°12' W 123°57'0 0.0
2015-Jun-29 04:32N 49°12' W 123°57'4 4.1
2015-Jun-29 03:33N 49°14' W 123°52'2019.8
2015-Jun-29 02:34N 49°19' W 123°23'6 5.6
2015-Jun-29 01:33N 49°23' W 123°16'1716.8
2015-Jun-29 00:33N 49°16' W 123°39'1212.2
2015-Jun-28 23:33N 49°12' W 123°57'1211.8
2015-Jun-28 22:33N 49°17' W 123°41'1717.1
2015-Jun-28 21:33N 49°23' W 123°16'4 3.7
2015-Jun-28 20:33N 49°20' W 123°20'2019.6
2015-Jun-28 19:33N 49°14' W 123°49'6 1.0
2015-Jun-28 13:17N 49°12' W 123°57'0 0.0
2015-Jun-28 12:26N 49°12' W 123°57'0 0.0
2015-Jun-28 11:32N 49°12' W 123°57'0 0.0
2015-Jun-28 10:32N 49°12' W 123°57'0 0.0
2015-Jun-28 09:17N 49°12' W 123°57'0 0.0
2015-Jun-28 08:32N 49°12' W 123°57'0 0.0
2015-Jun-28 07:32N 49°12' W 123°57'0 0.0
2015-Jun-28 06:26N 49°12' W 123°57'0 0.0
2015-Jun-28 05:08N 49°12' W 123°57'0 0.0
2015-Jun-28 04:20N 49°12' W 123°57'0 0.0
2015-Jun-28 03:20N 49°12' W 123°57'0 0.0
2015-Jun-28 02:17N 49°12' W 123°57'0 0.0
2015-Jun-28 01:05N 49°12' W 123°57'0 0.0
2015-Jun-28 00:17N 49°12' W 123°57'0 0.1
2015-Jun-27 23:29N 49°12' W 123°57'1213.0
2015-Jun-27 22:34N 49°17' W 123°40'1712.5
2015-Jun-27 21:12N 49°23' W 123°16'5 8.0
2015-Jun-27 20:33N 49°19' W 123°22'2019.9
2015-Jun-27 19:33N 49°14' W 123°51'2 2.3
2015-Jun-27 18:33N 49°13' W 123°55'2019.8
2015-Jun-27 17:33N 49°19' W 123°26'7 7.3
2015-Jun-27 16:33N 49°23' W 123°16'1515.3
2015-Jun-27 15:33N 49°16' W 123°37'1413.7
2015-Jun-27 14:33N 49°12' W 123°57'0 0.1
2015-Jun-27 13:33N 49°12' W 123°57'0 0.0
2015-Jun-27 12:33N 49°12' W 123°57'0 0.0
2015-Jun-27 11:33N 49°12' W 123°57'0 0.0
2015-Jun-27 10:33N 49°12' W 123°57'0 0.0
2015-Jun-27 09:33N 49°12' W 123°57'0 0.0
2015-Jun-27 08:33N 49°12' W 123°57'0 0.0
2015-Jun-27 07:33N 49°12' W 123°57'0 0.0
2015-Jun-27 06:33N 49°12' W 123°57'0 0.0
2015-Jun-27 05:33N 49°12' W 123°57'0 0.0
2015-Jun-27 04:33N 49°12' W 123°57'1 0.6
2015-Jun-27 03:34N 49°12' W 123°57'1919.5
2015-Jun-27 02:34N 49°19' W 123°29'9 9.0
2015-Jun-27 01:33N 49°23' W 123°16'1515.4
2015-Jun-27 00:33N 49°16' W 123°37'1413.8
2015-Jun-26 23:33N 49°12' W 123°57'1211.6
2015-Jun-26 22:33N 49°16' W 123°41'1717.3
2015-Jun-26 21:33N 49°23' W 123°16'5 4.6
2015-Jun-26 20:33N 49°19' W 123°21'2019.7
2015-Jun-26 19:33N 49°14' W 123°50'5 5.1
2015-Jun-26 18:33N 49°12' W 123°57'1918.7
2015-Jun-26 17:34N 49°18' W 123°30'1010.2
2015-Jun-26 16:33N 49°23' W 123°16'1414.1
2015-Jun-26 15:33N 49°16' W 123°36'1514.9
2015-Jun-26 14:33N 49°12' W 123°57'0 0.1
2015-Jun-26 13:33N 49°12' W 123°57'0 0.0
2015-Jun-26 12:33N 49°12' W 123°57'0 0.0
2015-Jun-26 11:33N 49°12' W 123°57'0 0.0
2015-Jun-26 10:33N 49°12' W 123°57'0 0.0
2015-Jun-26 09:30N 49°12' W 123°57'0 0.0
2015-Jun-26 08:33N 49°12' W 123°57'0 0.0
2015-Jun-26 07:33N 49°12' W 123°57'0 0.0
2015-Jun-26 06:27N 49°12' W 123°57'0 0.0
2015-Jun-26 05:30N 49°12' W 123°57'0 0.4
2015-Jun-26 04:33N 49°12' W 123°57'1818.0
2015-Jun-26 03:33N 49°18' W 123°31'1110.9
2015-Jun-26 02:33N 49°23' W 123°16'1616.0
2015-Jun-26 01:33N 49°16' W 123°38'1313.1
2015-Jun-26 00:33N 49°12' W 123°57'1110.9
2015-Jun-25 23:34N 49°17' W 123°43'1818.1
2015-Jun-25 22:33N 49°23' W 123°16'6 6.1
2015-Jun-25 21:33N 49°19' W 123°23'2019.8
2015-Jun-25 20:33N 49°14' W 123°53'1 0.9
2015-Jun-25 19:34N 49°14' W 123°54'1514.7
2015-Jun-25 18:34N 49°18' W 123°33'1111.4
2015-Jun-25 17:33N 49°23' W 123°16'0 0.0
2015-Jun-25 16:33N 49°23' W 123°16'1413.7
2015-Jun-25 15:33N 49°16' W 123°35'1515.4
2015-Jun-25 14:33N 49°12' W 123°57'0 0.1
2015-Jun-25 13:33N 49°12' W 123°57'0 0.0
2015-Jun-25 12:31N 49°12' W 123°57'0 0.0
2015-Jun-25 11:31N 49°12' W 123°57'0 0.0
2015-Jun-25 10:31N 49°12' W 123°57'0 0.0
2015-Jun-25 09:31N 49°12' W 123°57'0 0.0
2015-Jun-25 08:31N 49°12' W 123°57'0 0.0
2015-Jun-25 07:31N 49°12' W 123°57'0 0.0
2015-Jun-25 05:31N 49°12' W 123°57'0 0.0
2015-Jun-25 04:31N 49°12' W 123°57'0 0.0
2015-Jun-25 03:31N 49°12' W 123°57'0 0.0
2015-Jun-25 02:16N 49°12' W 123°57'0 0.1
2015-Jun-25 01:31N 49°12' W 123°57'7 7.4
2015-Jun-25 00:33N 49°15' W 123°48'1919.4
2015-Jun-24 23:33N 49°21' W 123°20'1 0.6
2015-Jun-24 22:33N 49°21' W 123°20'2019.8
2015-Jun-24 21:33N 49°14' W 123°49'6 5.4
2015-Jun-24 20:24N 49°12' W 123°57'0 0.1
2015-Jun-24 19:30N 49°12' W 123°57'0 0.0
2015-Jun-24 18:12N 49°12' W 123°57'0 0.0
2015-Jun-24 17:24N 49°12' W 123°57'0 0.0
2015-Jun-24 16:30N 49°12' W 123°57'0 0.0
2015-Jun-24 15:24N 49°12' W 123°57'0 0.0
2015-Jun-24 14:30N 49°12' W 123°57'0 0.0
2015-Jun-24 13:33N 49°12' W 123°57'0 0.0
2015-Jun-24 12:24N 49°12' W 123°57'0 0.0
2015-Jun-24 11:33N 49°12' W 123°57'0 0.0
2015-Jun-24 10:33N 49°12' W 123°57'0 0.0
2015-Jun-24 09:30N 49°12' W 123°57'0 0.0
2015-Jun-24 08:18N 49°12' W 123°57'0 0.0
2015-Jun-24 07:30N 49°12' W 123°57'0 0.0
2015-Jun-24 06:24N 49°12' W 123°57'0 0.0
2015-Jun-24 05:30N 49°12' W 123°57'0 0.0
2015-Jun-24 04:24N 49°12' W 123°57'0 0.0
2015-Jun-24 03:18N 49°12' W 123°57'0 0.0
2015-Jun-24 02:33N 49°12' W 123°57'0 0.0
2015-Jun-24 01:30N 49°12' W 123°57'0 0.0
2015-Jun-24 00:18N 49°12' W 123°57'0 0.0
2015-Jun-23 23:33N 49°12' W 123°57'0 0.0
2015-Jun-23 22:33N 49°12' W 123°57'0 0.0
2015-Jun-23 21:33N 49°12' W 123°57'0 0.0
2015-Jun-23 20:33N 49°12' W 123°57'0 0.0
2015-Jun-23 19:30N 49°12' W 123°57'0 0.0
2015-Jun-23 19:00N 49°12' W 123°57'  

Dump ship's entire track history